createdAt,value
2022-12-19T00:01:36.576Z,101910.75
2022-12-19T00:04:07.840Z,101907.31
2022-12-19T00:06:35.444Z,101898.75
2022-12-19T00:09:02.121Z,101903.91
2022-12-19T00:11:29.212Z,101911.41
2022-12-19T00:13:56.322Z,101911.47
2022-12-19T00:16:24.515Z,101911.03
2022-12-19T00:18:55.100Z,101905.75
2022-12-19T00:21:23.465Z,101894.47
2022-12-19T00:23:50.644Z,101894.59
2022-12-19T00:26:18.934Z,101890.13
2022-12-19T00:28:49.248Z,101895.78
2022-12-19T00:31:16.997Z,101892.44
2022-12-19T00:33:44.206Z,101883.97
2022-12-19T00:36:12.376Z,101885.84
2022-12-19T00:38:38.816Z,101879.59
2022-12-19T00:41:10.066Z,101877.31
2022-12-19T00:43:38.095Z,101868.88
2022-12-19T00:46:05.519Z,101866.13
2022-12-19T00:48:32.193Z,101858.06
2022-12-19T00:50:59.631Z,101857.84
2022-12-19T00:53:26.043Z,101859.56
2022-12-19T00:55:52.601Z,101852.59
2022-12-19T00:58:22.558Z,101856.25
2022-12-19T01:00:49.388Z,101847.59
2022-12-19T01:03:16.165Z,101849.88
2022-12-19T01:05:42.472Z,101849.13
2022-12-19T01:08:09.142Z,101852.22
2022-12-19T01:10:35.467Z,101848.25
2022-12-19T01:13:03.445Z,101847.22
2022-12-19T01:15:29.998Z,101845.50
2022-12-19T01:17:56.545Z,101850.91
2022-12-19T01:20:26.687Z,101846.25
2022-12-19T01:22:56.725Z,101849.03
2022-12-19T01:25:25.174Z,101841.97
2022-12-19T01:27:53.925Z,101833.47
2022-12-19T01:30:20.556Z,101839.34
2022-12-19T01:32:47.621Z,101836.41
2022-12-19T01:35:20.677Z,101826.84
2022-12-19T01:37:48.460Z,101816.75
2022-12-19T01:40:14.999Z,101810.69
2022-12-19T01:42:42.574Z,101816.78
2022-12-19T01:45:12.175Z,101822.97
2022-12-19T01:47:48.324Z,101810.06
2022-12-19T01:50:29.085Z,101804.56
2022-12-19T01:52:56.546Z,101813.28
2022-12-19T01:55:22.891Z,101802.03
2022-12-19T01:57:49.334Z,101808.09
2022-12-19T02:00:15.834Z,101810.91
2022-12-19T02:02:45.100Z,101803.06
2022-12-19T02:05:11.889Z,101806.97
2022-12-19T02:07:38.793Z,101796.25
2022-12-19T02:10:05.776Z,101794.19
2022-12-19T02:12:34.655Z,101782.94
2022-12-19T02:15:03.192Z,101781.03
2022-12-19T02:17:30.094Z,101777.09
2022-12-19T02:20:15.567Z,101772.69
2022-12-19T02:22:51.908Z,101765.63
2022-12-19T02:25:36.955Z,101759.41
2022-12-19T02:28:24.106Z,101759.56
2022-12-19T02:31:01.136Z,101752.00
2022-12-19T02:33:41.268Z,101739.75
2022-12-19T02:36:12.522Z,101737.16
2022-12-19T02:38:50.905Z,101745.78
2022-12-19T02:41:23.415Z,101744.19
2022-12-19T02:43:58.078Z,101743.78
2022-12-19T02:46:26.694Z,101737.13
2022-12-19T02:48:53.736Z,101737.28
2022-12-19T02:51:20.408Z,101738.50
2022-12-19T02:53:48.451Z,101737.94
2022-12-19T02:56:14.986Z,101735.78
2022-12-19T02:58:48.102Z,101724.00
2022-12-19T03:01:27.865Z,101733.53
2022-12-19T03:04:06.502Z,101733.09
2022-12-19T03:06:40.973Z,101737.03
2022-12-19T03:09:23.473Z,101735.47
2022-12-19T03:11:54.098Z,101728.59
2022-12-19T03:14:21.207Z,101731.00
2022-12-19T03:16:48.098Z,101722.81
2022-12-19T03:19:14.926Z,101720.84
2022-12-19T03:21:45.767Z,101717.69
2022-12-19T03:24:12.839Z,101705.66
2022-12-19T03:26:46.115Z,101698.06
2022-12-19T03:29:12.789Z,101692.78
2022-12-19T03:31:40.089Z,101692.25
2022-12-19T03:34:10.461Z,101700.91
2022-12-19T03:36:42.112Z,101703.41
2022-12-19T03:39:10.299Z,101698.53
2022-12-19T03:41:56.997Z,101693.50
2022-12-19T03:44:26.042Z,101683.94
2022-12-19T03:46:57.700Z,101683.22
2022-12-19T03:49:24.467Z,101676.34
2022-12-19T03:52:05.576Z,101669.50
2022-12-19T03:54:34.956Z,101659.44
2022-12-19T03:57:06.425Z,101655.97
2022-12-19T03:59:54.987Z,101658.78
2022-12-19T04:02:22.821Z,101663.00
2022-12-19T04:04:52.418Z,101651.50
2022-12-19T04:07:19.921Z,101652.16
2022-12-19T04:09:47.443Z,101655.06
2022-12-19T04:12:15.991Z,101646.22
2022-12-19T04:14:42.976Z,101633.78
2022-12-19T04:17:12.812Z,101625.75
2022-12-19T04:19:49.523Z,101626.50
2022-12-19T04:22:21.156Z,101621.22
2022-12-19T04:24:50.647Z,101622.19
2022-12-19T04:27:18.337Z,101624.84
2022-12-19T04:29:45.351Z,101622.91
2022-12-19T04:32:11.932Z,101633.66
2022-12-19T04:34:42.712Z,101615.00
2022-12-19T04:37:10.851Z,101607.09
2022-12-19T04:39:37.494Z,101599.94
2022-12-19T04:42:04.089Z,101601.41
2022-12-19T04:44:30.764Z,101609.19
2022-12-19T04:46:57.120Z,101593.47
2022-12-19T04:49:23.463Z,101593.84
2022-12-19T04:51:50.850Z,101591.28
2022-12-19T04:54:17.563Z,101585.34
2022-12-19T04:56:44.366Z,101582.84
2022-12-19T04:59:11.291Z,101577.84
2022-12-19T05:01:38.457Z,101578.41
2022-12-19T05:04:05.467Z,101562.97
2022-12-19T05:06:32.664Z,101556.47
2022-12-19T05:09:00.645Z,101549.66
2022-12-19T05:11:27.559Z,101554.53
2022-12-19T05:14:01.316Z,101554.41
2022-12-19T05:16:28.262Z,101551.41
2022-12-19T05:18:54.568Z,101542.44
2022-12-19T05:21:21.402Z,101542.78
2022-12-19T05:23:50.134Z,101543.50
2022-12-19T05:26:16.503Z,101532.06
2022-12-19T05:28:42.832Z,101526.75
2022-12-19T05:31:10.953Z,101522.91
2022-12-19T05:33:37.309Z,101515.28
2022-12-19T05:36:04.028Z,101522.38
2022-12-19T05:38:30.763Z,101535.72
2022-12-19T05:40:57.186Z,101530.69
2022-12-19T05:43:23.840Z,101523.72
2022-12-19T05:45:50.302Z,101521.88
2022-12-19T05:48:16.647Z,101509.88
2022-12-19T05:50:46.948Z,101523.03
2022-12-19T05:53:13.403Z,101515.16
2022-12-19T05:55:40.393Z,101514.25
2022-12-19T05:58:06.770Z,101521.78
2022-12-19T06:00:33.064Z,101499.69
2022-12-19T06:02:59.454Z,101501.63
2022-12-19T06:05:25.909Z,101491.97
2022-12-19T06:07:52.183Z,101493.03
2022-12-19T06:10:18.460Z,101493.75
2022-12-19T06:12:45.074Z,101477.84
2022-12-19T06:15:11.789Z,101478.81
2022-12-19T06:17:38.181Z,101473.88
2022-12-19T06:20:05.038Z,101464.94
2022-12-19T06:22:31.601Z,101465.16
2022-12-19T06:24:57.922Z,101466.44
2022-12-19T06:27:24.228Z,101456.41
2022-12-19T06:29:50.533Z,101451.78
2022-12-19T06:32:17.173Z,101447.13
2022-12-19T06:37:29.864Z,101445.31
2022-12-19T06:39:56.166Z,101436.47
2022-12-19T06:42:25.648Z,101424.69
2022-12-19T06:44:53.667Z,101421.94
2022-12-19T06:47:21.644Z,101426.50
2022-12-19T06:49:48.740Z,101428.19
2022-12-19T06:52:15.604Z,101414.56
2022-12-19T06:54:42.509Z,101411.19
2022-12-19T06:57:09.296Z,101422.34
2022-12-19T06:59:35.647Z,101429.00
2022-12-19T07:02:11.206Z,101439.28
2022-12-19T07:04:39.391Z,101442.28
2022-12-19T07:07:06.134Z,101437.59
2022-12-19T07:09:33.742Z,101442.78
2022-12-19T07:12:00.700Z,101435.53
2022-12-19T07:14:27.275Z,101433.81
2022-12-19T07:16:54.887Z,101434.75
2022-12-19T07:19:22.753Z,101432.59
2022-12-19T07:21:49.525Z,101430.22
2022-12-19T07:24:16.124Z,101420.59
2022-12-19T07:26:43.763Z,101419.53
2022-12-19T07:29:12.991Z,101426.13
2022-12-19T07:31:39.986Z,101428.31
2022-12-19T07:34:06.770Z,101424.78
2022-12-19T07:36:33.200Z,101427.09
2022-12-19T07:39:00.643Z,101431.34
2022-12-19T07:41:27.310Z,101424.97
2022-12-19T07:43:53.838Z,101422.00
2022-12-19T07:46:21.839Z,101415.91
2022-12-19T07:48:48.448Z,101421.31
2022-12-19T07:51:14.808Z,101423.22
2022-12-19T07:53:41.271Z,101422.53
2022-12-19T07:56:08.246Z,101418.56
2022-12-19T07:58:35.084Z,101415.31
2022-12-19T08:01:01.838Z,101417.69
2022-12-19T08:03:31.443Z,101418.16
2022-12-19T08:06:01.583Z,101415.19
2022-12-19T08:08:28.391Z,101416.28
2022-12-19T08:10:54.765Z,101410.06
2022-12-19T08:13:21.055Z,101414.09
2022-12-19T08:15:47.503Z,101407.75
2022-12-19T08:18:14.192Z,101409.44
2022-12-19T08:20:43.657Z,101411.25
2022-12-19T08:23:09.945Z,101411.81
2022-12-19T08:25:39.384Z,101397.50
2022-12-19T08:28:05.767Z,101400.94
2022-12-19T08:30:32.270Z,101407.53
2022-12-19T08:32:58.604Z,101398.03
2022-12-19T08:35:25.451Z,101399.63
2022-12-19T08:37:52.061Z,101399.22
2022-12-19T08:40:18.829Z,101390.31
2022-12-19T08:42:45.164Z,101378.50
2022-12-19T08:45:12.195Z,101375.16
2022-12-19T08:47:38.722Z,101373.31
2022-12-19T08:50:05.496Z,101366.66
2022-12-19T08:52:31.825Z,101379.38
2022-12-19T08:54:58.455Z,101370.41
2022-12-19T08:57:24.879Z,101375.03
2022-12-19T08:59:51.284Z,101372.28
2022-12-19T09:02:18.912Z,101366.41
2022-12-19T09:06:00.269Z,101377.00
2022-12-19T09:07:31.952Z,101359.03
2022-12-19T09:10:04.416Z,101356.13
2022-12-19T09:12:30.832Z,101359.09
2022-12-19T09:14:57.375Z,101349.69
2022-12-19T09:17:23.837Z,101346.25
2022-12-19T09:19:50.378Z,101359.00
2022-12-19T09:22:16.975Z,101344.31
2022-12-19T09:24:43.412Z,101344.84
2022-12-19T09:27:10.901Z,101343.66
2022-12-19T09:29:37.240Z,101338.03
2022-12-19T09:32:04.166Z,101337.72
2022-12-19T09:34:34.827Z,101338.47
2022-12-19T09:37:05.189Z,101337.53
2022-12-19T09:39:31.479Z,101337.84
2022-12-19T09:42:06.990Z,101330.22
2022-12-19T09:44:36.702Z,101329.25
2022-12-19T09:47:19.754Z,101323.59
2022-12-19T09:49:47.495Z,101323.72
2022-12-19T09:52:19.227Z,101318.25
2022-12-19T09:54:51.569Z,101312.88
2022-12-19T09:57:20.786Z,101312.19
2022-12-19T09:59:51.214Z,101301.34
2022-12-19T10:02:26.395Z,101293.59
2022-12-19T10:05:05.557Z,101308.72
2022-12-19T10:08:07.576Z,101292.13
2022-12-19T10:12:38.645Z,101293.81
2022-12-19T10:13:57.471Z,101283.41
2022-12-19T10:16:52.155Z,101278.38
2022-12-19T10:19:45.759Z,101270.72
2022-12-19T10:22:21.208Z,101282.97
2022-12-19T10:24:57.578Z,101279.78
2022-12-19T10:27:44.274Z,101275.84
2022-12-19T10:30:26.189Z,101268.22
2022-12-19T10:33:01.235Z,101276.66
2022-12-19T10:35:32.428Z,101269.34
2022-12-19T10:38:05.331Z,101263.91
2022-12-19T10:40:39.272Z,101262.03
2022-12-19T10:43:28.624Z,101273.41
2022-12-19T10:46:02.553Z,101255.38
2022-12-19T10:48:31.093Z,101261.81
2022-12-19T10:50:58.385Z,101244.53
2022-12-19T10:53:30.138Z,101255.75
2022-12-19T10:56:16.696Z,101244.22
2022-12-19T10:58:44.396Z,101238.84
2022-12-19T11:01:13.933Z,101235.66
2022-12-19T11:03:42.322Z,101230.91
2022-12-19T11:06:29.400Z,101241.50
2022-12-19T11:09:13.591Z,101224.75
2022-12-19T11:14:33.998Z,101211.63
2022-12-19T11:18:45.644Z,101209.41
2022-12-19T11:27:03.061Z,101212.56
2022-12-19T11:29:18.491Z,101216.94
2022-12-19T11:29:26.288Z,101209.41
2022-12-19T11:30:25.738Z,101207.44
2022-12-19T11:30:38.060Z,101203.81
2022-12-19T11:34:25.332Z,101184.22
2022-12-19T11:37:10.589Z,101187.94
2022-12-19T11:39:41.581Z,101183.31
2022-12-19T11:42:12.227Z,101197.31
2022-12-19T11:44:41.974Z,101195.69
2022-12-19T11:47:20.480Z,101186.19
2022-12-19T11:50:05.703Z,101173.66
2022-12-19T11:53:03.535Z,101183.72
2022-12-19T11:55:36.218Z,101175.44
2022-12-19T11:58:02.522Z,101172.25
2022-12-19T12:00:30.114Z,101168.88
2022-12-19T12:03:02.650Z,101159.69
2022-12-19T12:05:32.033Z,101158.53
2022-12-19T12:09:47.436Z,101156.56
2022-12-19T12:17:24.383Z,101168.00
2022-12-19T12:22:39.463Z,101156.09
2022-12-19T12:28:41.548Z,101149.00
2022-12-19T12:29:00.665Z,101158.53
2022-12-19T12:31:17.155Z,101156.34
2022-12-19T12:31:19.292Z,101147.34
2022-12-19T12:32:04.538Z,101144.75
2022-12-19T12:35:56.947Z,101139.97
2022-12-19T12:40:40.665Z,101132.84
2022-12-19T12:43:22.368Z,101138.88
2022-12-19T12:45:48.872Z,101130.16
2022-12-19T12:48:25.811Z,101128.25
2022-12-19T12:50:55.379Z,101132.72
2022-12-19T12:53:24.060Z,101126.69
2022-12-19T12:55:51.914Z,101120.88
2022-12-19T12:58:37.038Z,101130.78
2022-12-19T13:01:17.626Z,101120.84
2022-12-19T13:03:53.077Z,101113.41
2022-12-19T13:06:31.948Z,101116.38
2022-12-19T13:09:16.513Z,101114.53
2022-12-19T13:12:08.928Z,101110.59
2022-12-19T13:14:35.510Z,101122.25
2022-12-19T13:17:03.259Z,101109.97
2022-12-19T13:19:30.871Z,101102.56
2022-12-19T13:22:04.077Z,101101.94
2022-12-19T13:24:41.015Z,101092.25
2022-12-19T13:27:27.557Z,101101.81
2022-12-19T13:30:00.160Z,101107.31
2022-12-19T13:32:32.237Z,101104.78
2022-12-19T13:35:06.279Z,101096.03
2022-12-19T13:39:59.854Z,101104.66
2022-12-19T13:41:24.904Z,101097.13
2022-12-19T13:43:51.243Z,101100.44
2022-12-19T13:46:27.390Z,101101.34
2022-12-19T13:48:59.531Z,101102.19
2022-12-19T13:51:26.061Z,101097.69
2022-12-19T13:53:59.279Z,101089.56
2022-12-19T13:56:30.292Z,101092.09
2022-12-19T13:58:59.313Z,101105.94
2022-12-19T14:01:27.862Z,101105.31
2022-12-19T14:04:02.659Z,101103.75
2022-12-19T14:06:47.418Z,101096.66
2022-12-19T14:11:25.193Z,101116.44
2022-12-19T14:13:59.189Z,101113.31
2022-12-19T14:15:41.429Z,101103.41
2022-12-19T14:18:42.252Z,101101.22
2022-12-19T14:22:05.975Z,101098.44
2022-12-19T14:24:10.420Z,101102.66
2022-12-19T14:28:19.731Z,101095.16
2022-12-19T14:30:26.599Z,101098.31
2022-12-19T14:33:40.896Z,101098.25
2022-12-19T14:36:09.089Z,101093.25
2022-12-19T14:39:25.485Z,101095.03
2022-12-19T14:41:09.487Z,101091.19
2022-12-19T14:43:59.709Z,101093.16
2022-12-19T14:52:08.552Z,101102.28
2022-12-19T14:54:15.599Z,101090.94
2022-12-19T14:54:25.925Z,101097.22
2022-12-19T14:56:08.173Z,101092.53
2022-12-19T14:58:55.604Z,101098.97
2022-12-19T15:01:09.020Z,101089.63
2022-12-19T15:03:43.289Z,101075.28
2022-12-19T15:07:05.252Z,101083.88
2022-12-19T15:11:03.347Z,101075.00
2022-12-19T15:13:30.116Z,101080.63
2022-12-19T15:15:16.270Z,101080.16
2022-12-19T15:17:47.521Z,101077.78
2022-12-19T15:20:14.196Z,101081.81
2022-12-19T15:22:40.747Z,101073.19
2022-12-19T15:25:17.552Z,101075.88
2022-12-19T15:27:54.113Z,101066.34
2022-12-19T15:30:21.566Z,101066.44
2022-12-19T15:32:48.159Z,101065.91
2022-12-19T15:35:15.941Z,101060.28
2022-12-19T15:37:42.731Z,101069.75
2022-12-19T15:40:16.512Z,101063.00
2022-12-19T15:42:47.393Z,101068.03
2022-12-19T15:45:19.257Z,101061.00
2022-12-19T15:47:48.108Z,101069.81
2022-12-19T15:50:22.085Z,101055.16
2022-12-19T15:52:48.915Z,101056.81
2022-12-19T15:55:19.093Z,101044.88
2022-12-19T15:57:52.517Z,101041.53
2022-12-19T16:00:23.191Z,101042.56
2022-12-19T16:03:22.248Z,101041.34
2022-12-19T16:05:36.985Z,101033.34
2022-12-19T16:08:15.326Z,101034.50
2022-12-19T16:10:42.296Z,101035.22
2022-12-19T16:13:23.603Z,101029.53
2022-12-19T16:15:50.864Z,101031.19
2022-12-19T16:18:18.996Z,101023.53
2022-12-19T16:20:45.896Z,101010.53
2022-12-19T16:23:22.468Z,101019.53
2022-12-19T16:25:52.770Z,101025.88
2022-12-19T16:28:19.319Z,101036.69
2022-12-19T16:30:46.230Z,101026.22
2022-12-19T16:33:27.712Z,101029.19
2022-12-19T16:36:04.061Z,101016.84
2022-12-19T16:38:31.428Z,101016.53
2022-12-19T16:41:01.693Z,101004.88
2022-12-19T16:43:30.202Z,101003.69
2022-12-19T16:46:01.522Z,101012.88
2022-12-19T16:48:29.672Z,101005.03
2022-12-19T16:51:15.586Z,101007.19
2022-12-19T16:53:42.010Z,100996.88
2022-12-19T16:56:13.661Z,101007.84
2022-12-19T16:58:43.275Z,101008.53
2022-12-19T17:01:11.052Z,101005.81
2022-12-19T17:03:41.543Z,100999.66
2022-12-19T17:06:13.271Z,100999.78
2022-12-19T17:08:42.078Z,101001.81
2022-12-19T17:11:23.192Z,101004.13
2022-12-19T17:14:03.183Z,100995.53
2022-12-19T17:16:30.222Z,100983.88
2022-12-19T17:18:58.350Z,100982.78
2022-12-19T17:21:25.869Z,100988.22
2022-12-19T17:23:54.290Z,100987.53
2022-12-19T17:26:21.179Z,100983.88
2022-12-19T17:28:48.388Z,100989.03
2022-12-19T17:31:20.953Z,100984.53
2022-12-19T17:33:47.827Z,100995.31
2022-12-19T17:36:18.465Z,100996.88
2022-12-19T17:38:51.351Z,100997.53
2022-12-19T17:41:18.348Z,100991.63
2022-12-19T17:43:44.919Z,100994.34
2022-12-19T17:46:19.601Z,100993.31
2022-12-19T17:48:50.452Z,100989.59
2022-12-19T17:51:18.479Z,100988.03
2022-12-19T17:53:45.607Z,100985.66
2022-12-19T17:56:16.261Z,100986.19
2022-12-19T17:58:42.868Z,100987.22
2022-12-19T18:01:20.337Z,100988.53
2022-12-19T18:03:48.315Z,100986.72
2022-12-19T18:06:15.731Z,100992.38
2022-12-19T18:08:42.281Z,100999.44
2022-12-19T18:11:16.293Z,101005.41
2022-12-19T18:13:42.877Z,100993.19
2022-12-19T18:16:11.940Z,100999.44
2022-12-19T18:18:38.842Z,101002.34
2022-12-19T18:21:15.664Z,101003.53
2022-12-19T18:23:43.454Z,101012.03
2022-12-19T18:26:13.225Z,101004.84
2022-12-19T18:28:41.547Z,100997.94
2022-12-19T18:31:15.979Z,100995.03
2022-12-19T18:33:45.665Z,101001.19
2022-12-19T18:36:27.418Z,100999.78
2022-12-19T18:38:55.213Z,100999.31
2022-12-19T18:41:28.231Z,100993.44
2022-12-19T18:43:54.924Z,100998.84
2022-12-19T18:46:26.680Z,100987.84
2022-12-19T18:48:53.335Z,100991.75
2022-12-19T18:51:23.245Z,100990.63
2022-12-19T18:53:52.699Z,100988.63
2022-12-19T18:56:20.099Z,100993.59
2022-12-19T18:58:46.878Z,100989.03
2022-12-19T19:01:20.533Z,100986.09
2022-12-19T19:03:56.891Z,100997.66
2022-12-19T19:06:28.483Z,100990.84
2022-12-19T19:08:57.139Z,100987.84
2022-12-19T19:11:25.031Z,100980.66
2022-12-19T19:13:53.708Z,100991.28
2022-12-19T19:16:21.585Z,101001.19
2022-12-19T19:18:52.968Z,100998.97
2022-12-19T19:21:22.301Z,101014.06
2022-12-19T19:23:51.832Z,101008.44
2022-12-19T19:26:18.269Z,101006.28
2022-12-19T19:28:50.286Z,100999.50
2022-12-19T19:31:20.588Z,100993.91
2022-12-19T19:33:49.214Z,100982.91
2022-12-19T19:36:18.469Z,101002.00
2022-12-19T19:38:48.867Z,100998.53
2022-12-19T19:41:15.234Z,100997.31
2022-12-19T19:43:42.041Z,100998.69
2022-12-19T19:46:08.788Z,101006.63
2022-12-19T19:48:35.563Z,101013.09
2022-12-19T19:51:02.360Z,101003.34
2022-12-19T19:53:28.822Z,101001.25
2022-12-19T19:55:57.910Z,100993.91
2022-12-19T19:58:24.803Z,101008.16
2022-12-19T20:00:51.288Z,101003.06
2022-12-19T20:03:22.508Z,100992.81
2022-12-19T20:05:49.341Z,100989.19
2022-12-19T20:08:17.873Z,100998.44
2022-12-19T20:10:44.433Z,100991.84
2022-12-19T20:13:12.852Z,100990.63
2022-12-19T20:15:44.387Z,101001.50
2022-12-19T20:18:15.332Z,100994.06
2022-12-19T20:20:42.871Z,100994.63
2022-12-19T20:23:09.414Z,100984.41
2022-12-19T20:25:36.116Z,100990.81
2022-12-19T20:28:03.314Z,100994.16
2022-12-19T20:30:29.855Z,100987.56
2022-12-19T20:32:57.210Z,101001.81
2022-12-19T20:35:23.905Z,100996.25
2022-12-19T20:37:50.215Z,101009.13
2022-12-19T20:40:16.839Z,100999.38
2022-12-19T20:42:43.489Z,100997.91
2022-12-19T20:45:10.099Z,100995.63
2022-12-19T20:47:38.036Z,100994.34
2022-12-19T20:50:05.162Z,100992.66
2022-12-19T20:52:32.419Z,100985.16
2022-12-19T20:54:58.858Z,100979.88
2022-12-19T20:57:26.687Z,100993.44
2022-12-19T20:59:53.436Z,100989.28
2022-12-19T21:02:20.038Z,100993.81
2022-12-19T21:04:47.577Z,100994.38
2022-12-19T21:07:14.273Z,101009.19
2022-12-19T21:09:45.031Z,101006.69
2022-12-19T21:12:12.035Z,101007.28
2022-12-19T21:14:38.421Z,101013.72
2022-12-19T21:17:05.077Z,101011.38
2022-12-19T21:19:31.431Z,101028.75
2022-12-19T21:21:57.947Z,101026.06
2022-12-19T21:24:25.709Z,101017.06
2022-12-19T21:26:57.684Z,101028.13
2022-12-19T21:29:24.518Z,101025.22
2022-12-19T21:31:51.023Z,101018.44
2022-12-19T21:34:17.766Z,101019.97
2022-12-19T21:36:44.467Z,101021.44
2022-12-19T21:39:11.065Z,101013.56
2022-12-19T21:41:37.645Z,101019.78
2022-12-19T21:44:04.450Z,101011.38
2022-12-19T21:46:35.440Z,101001.06
2022-12-19T21:49:03.323Z,101014.09
2022-12-19T21:51:31.428Z,101016.56
2022-12-19T21:54:00.385Z,101006.25
2022-12-19T21:56:34.387Z,101004.13
2022-12-19T21:59:02.506Z,100997.25
2022-12-19T22:01:30.201Z,100987.53
2022-12-19T22:04:01.256Z,100987.38
2022-12-19T22:06:30.085Z,101000.41
2022-12-19T22:08:56.625Z,101001.63
2022-12-19T22:11:24.355Z,101001.59
2022-12-19T22:13:51.329Z,100997.09
2022-12-19T22:16:18.658Z,100998.25
2022-12-19T22:18:47.919Z,101004.09
2022-12-19T22:21:17.329Z,101005.63
2022-12-19T22:23:44.991Z,100998.66
2022-12-19T22:26:11.989Z,100996.38
2022-12-19T22:28:39.377Z,100996.31
2022-12-19T22:31:17.131Z,100996.69
2022-12-19T22:33:44.337Z,101004.03
2022-12-19T22:36:15.232Z,101004.78
2022-12-19T22:38:43.478Z,101006.81
2022-12-19T22:41:10.401Z,100999.94
2022-12-19T22:43:37.493Z,101000.81
2022-12-19T22:46:20.275Z,101007.97
2022-12-19T22:48:48.208Z,100998.41
2022-12-19T22:51:15.609Z,100995.84
2022-12-19T22:53:43.038Z,101003.06
2022-12-19T22:56:20.319Z,100990.25
2022-12-19T22:58:48.389Z,100995.13
2022-12-19T23:01:18.085Z,101004.84
2022-12-19T23:03:46.057Z,100997.69
2022-12-19T23:06:13.678Z,101002.31
2022-12-19T23:08:40.408Z,100999.50
2022-12-19T23:11:08.814Z,100996.47
2022-12-19T23:13:35.427Z,100989.66
2022-12-19T23:16:03.283Z,101000.50
2022-12-19T23:18:30.006Z,101003.84
2022-12-19T23:21:13.495Z,101002.66
2022-12-19T23:23:43.209Z,101005.75
2022-12-19T23:26:15.538Z,101001.03
2022-12-19T23:28:43.514Z,100987.38
2022-12-19T23:31:11.968Z,100990.84
2022-12-19T23:33:38.525Z,100989.94
2022-12-19T23:36:05.594Z,100995.19
2022-12-19T23:38:32.560Z,100982.41
2022-12-19T23:41:09.746Z,100991.47
2022-12-19T23:43:37.112Z,100985.22
2022-12-19T23:46:07.871Z,100986.47
2022-12-19T23:48:34.806Z,100993.19
2022-12-19T23:51:03.029Z,100993.81
2022-12-19T23:53:30.593Z,100980.84
2022-12-19T23:55:57.531Z,100979.44
2022-12-19T23:58:24.869Z,100972.09
